createdAt,value
2023-10-03T00:00:43.317Z,100.00
2023-10-03T00:03:14.739Z,100.00
2023-10-03T00:05:46.431Z,100.00
2023-10-03T00:08:14.799Z,100.00
2023-10-03T00:10:42.411Z,100.00
2023-10-03T00:13:12.303Z,100.00
2023-10-03T00:15:45.433Z,100.00
2023-10-03T00:18:13.907Z,100.00
2023-10-03T00:20:43.175Z,100.00
2023-10-03T00:23:10.815Z,100.00
2023-10-03T00:25:39.712Z,100.00
2023-10-03T00:28:08.198Z,100.00
2023-10-03T00:30:37.806Z,100.00
2023-10-03T00:33:06.855Z,100.00
2023-10-03T00:35:35.635Z,100.00
2023-10-03T00:38:08.220Z,100.00
2023-10-03T00:40:37.188Z,100.00
2023-10-03T00:43:04.830Z,100.00
2023-10-03T00:45:33.349Z,100.00
2023-10-03T00:48:03.244Z,100.00
2023-10-03T00:50:36.057Z,100.00
2023-10-03T00:53:10.997Z,100.00
2023-10-03T00:55:40.271Z,100.00
2023-10-03T00:58:19.174Z,100.00
2023-10-03T01:00:50.859Z,100.00
2023-10-03T01:03:38.649Z,100.00
2023-10-03T01:06:10.719Z,100.00
2023-10-03T01:08:43.777Z,100.00
2023-10-03T01:11:25.915Z,100.00
2023-10-03T01:14:01.594Z,100.00
2023-10-03T01:16:37.786Z,100.00
2023-10-03T01:19:28.647Z,100.00
2023-10-03T01:21:56.146Z,100.00
2023-10-03T01:24:26.808Z,100.00
2023-10-03T01:26:56.510Z,100.00
2023-10-03T01:29:24.731Z,100.00
2023-10-03T01:31:53.969Z,100.00
2023-10-03T01:34:21.550Z,100.00
2023-10-03T01:36:49.737Z,100.00
2023-10-03T01:39:17.951Z,100.00
2023-10-03T01:41:46.370Z,100.00
2023-10-03T01:44:16.146Z,100.00
2023-10-03T01:46:44.103Z,100.00
2023-10-03T01:49:11.894Z,100.00
2023-10-03T01:51:39.617Z,100.00
2023-10-03T01:54:07.280Z,100.00
2023-10-03T01:56:35.367Z,100.00
2023-10-03T01:59:03.493Z,100.00
2023-10-03T02:01:34.725Z,100.00
2023-10-03T02:04:03.902Z,100.00
2023-10-03T02:06:31.879Z,100.00
2023-10-03T02:09:01.162Z,100.00
2023-10-03T02:11:29.132Z,100.00
2023-10-03T02:13:56.849Z,100.00
2023-10-03T02:16:24.454Z,100.00
2023-10-03T02:18:53.550Z,100.00
2023-10-03T02:21:21.334Z,100.00
2023-10-03T02:23:49.606Z,100.00
2023-10-03T02:26:18.061Z,100.00
2023-10-03T02:28:46.242Z,100.00
2023-10-03T02:31:16.306Z,100.00
2023-10-03T02:33:45.860Z,100.00
2023-10-03T02:36:16.383Z,100.00
2023-10-03T02:38:45.201Z,100.00
2023-10-03T02:41:14.251Z,100.00
2023-10-03T02:43:48.320Z,100.00
2023-10-03T02:46:16.404Z,100.00
2023-10-03T02:48:45.271Z,100.00
2023-10-03T02:51:15.501Z,100.00
2023-10-03T02:53:44.233Z,100.00
2023-10-03T02:56:16.498Z,100.00
2023-10-03T02:58:44.840Z,100.00
2023-10-03T03:01:13.152Z,100.00
2023-10-03T03:03:40.964Z,100.00
2023-10-03T03:06:13.477Z,100.00
2023-10-03T03:08:45.544Z,100.00
2023-10-03T03:11:14.252Z,100.00
2023-10-03T03:13:42.684Z,100.00
2023-10-03T03:16:13.100Z,100.00
2023-10-03T03:18:42.607Z,100.00
2023-10-03T03:21:16.732Z,100.00
2023-10-03T03:24:01.355Z,100.00
2023-10-03T03:26:39.018Z,100.00
2023-10-03T03:29:21.958Z,100.00
2023-10-03T03:31:51.884Z,100.00
2023-10-03T03:34:20.730Z,100.00
2023-10-03T03:36:51.317Z,100.00
2023-10-03T03:39:21.894Z,100.00
2023-10-03T03:41:50.931Z,100.00
2023-10-03T03:44:20.254Z,100.00
2023-10-03T03:46:48.004Z,100.00
2023-10-03T03:49:15.739Z,100.00
2023-10-03T03:51:43.541Z,100.00
2023-10-03T03:54:13.884Z,100.00
2023-10-03T03:56:42.405Z,100.00
2023-10-03T03:59:11.002Z,100.00
2023-10-03T04:01:38.870Z,100.00
2023-10-03T04:04:08.893Z,100.00
2023-10-03T04:06:37.229Z,100.00
2023-10-03T04:09:09.694Z,100.00
2023-10-03T04:11:38.349Z,100.00
2023-10-03T04:14:08.021Z,100.00
2023-10-03T04:16:44.825Z,100.00
2023-10-03T04:19:13.331Z,100.00
2023-10-03T04:21:43.890Z,100.00
2023-10-03T04:24:17.339Z,100.00
2023-10-03T04:26:45.670Z,100.00
2023-10-03T04:29:15.970Z,100.00
2023-10-03T04:31:45.647Z,100.00
2023-10-03T04:34:17.231Z,100.00
2023-10-03T04:36:46.605Z,100.00
2023-10-03T04:39:15.153Z,100.00
2023-10-03T04:41:45.419Z,100.00
2023-10-03T04:44:18.067Z,100.00
2023-10-03T04:46:47.135Z,100.00
2023-10-03T04:49:15.442Z,100.00
2023-10-03T04:51:47.269Z,100.00
2023-10-03T04:54:17.634Z,100.00
2023-10-03T04:56:46.429Z,100.00
2023-10-03T04:59:14.633Z,100.00
2023-10-03T05:01:43.174Z,100.00
2023-10-03T05:04:13.482Z,100.00
2023-10-03T05:06:41.378Z,100.00
2023-10-03T05:09:09.956Z,100.00
2023-10-03T05:11:37.429Z,100.00
2023-10-03T05:14:05.491Z,100.00
2023-10-03T05:16:35.285Z,100.00
2023-10-03T05:19:03.043Z,100.00
2023-10-03T05:21:33.366Z,100.00
2023-10-03T05:24:01.276Z,100.00
2023-10-03T05:26:28.901Z,100.00
2023-10-03T05:28:57.365Z,100.00
2023-10-03T05:31:25.421Z,100.00
2023-10-03T05:33:53.202Z,100.00
2023-10-03T05:36:20.717Z,100.00
2023-10-03T05:38:48.505Z,100.00
2023-10-03T05:41:24.602Z,100.00
2023-10-03T05:43:53.448Z,100.00
2023-10-03T05:46:21.503Z,100.00
2023-10-03T05:48:51.517Z,100.00
2023-10-03T05:51:22.237Z,100.00
2023-10-03T05:53:51.498Z,100.00
2023-10-03T05:56:21.239Z,100.00
2023-10-03T05:58:51.561Z,100.00
2023-10-03T06:01:19.536Z,100.00
2023-10-03T06:03:47.532Z,100.00
2023-10-03T06:06:15.920Z,100.00
2023-10-03T06:09:02.988Z,100.00
2023-10-03T06:11:48.541Z,100.00
2023-10-03T06:14:17.738Z,100.00
2023-10-03T06:16:45.895Z,100.00
2023-10-03T06:19:13.957Z,97.82
2023-10-03T06:21:42.705Z,97.82
2023-10-03T06:24:10.674Z,96.07
2023-10-03T06:26:38.260Z,97.05
2023-10-03T06:29:05.812Z,95.50
2023-10-03T06:31:33.695Z,96.43
2023-10-03T06:34:02.236Z,94.57
2023-10-03T06:36:34.892Z,93.76
2023-10-03T06:39:10.479Z,92.84
2023-10-03T06:41:39.458Z,93.46
2023-10-03T06:44:07.581Z,94.01
2023-10-03T06:46:36.035Z,91.90
2023-10-03T06:49:03.869Z,91.44
2023-10-03T06:51:31.852Z,90.29
2023-10-03T06:53:59.386Z,89.05
2023-10-03T06:56:27.097Z,89.89
2023-10-03T06:58:55.578Z,89.45
2023-10-03T07:01:23.198Z,89.04
2023-10-03T07:03:50.915Z,86.88
2023-10-03T07:06:19.287Z,86.52
2023-10-03T07:08:47.004Z,87.06
2023-10-03T07:11:17.470Z,86.32
2023-10-03T07:13:45.769Z,84.17
2023-10-03T07:16:13.421Z,84.98
2023-10-03T07:18:41.912Z,83.22
2023-10-03T07:21:09.740Z,82.12
2023-10-03T07:23:40.068Z,81.11
2023-10-03T07:26:08.794Z,80.95
2023-10-03T07:28:39.713Z,80.51
2023-10-03T07:31:15.024Z,79.09
2023-10-03T07:33:46.187Z,77.55
2023-10-03T07:36:14.823Z,77.32
2023-10-03T07:38:42.374Z,75.67
2023-10-03T07:41:10.755Z,76.23
2023-10-03T07:43:38.392Z,75.96
2023-10-03T07:46:05.894Z,75.28
2023-10-03T07:48:34.055Z,74.28
2023-10-03T07:51:06.529Z,72.86
2023-10-03T07:53:37.711Z,72.65
2023-10-03T07:56:05.611Z,72.97
2023-10-03T07:58:33.913Z,71.29
2023-10-03T08:01:01.852Z,70.79
2023-10-03T08:03:29.973Z,70.27
2023-10-03T08:05:59.101Z,68.91
2023-10-03T08:08:26.651Z,68.76
2023-10-03T08:10:54.446Z,69.08
2023-10-03T08:13:24.760Z,68.16
2023-10-03T08:15:52.309Z,70.31
2023-10-03T08:18:20.257Z,67.94
2023-10-03T08:20:55.184Z,66.28
2023-10-03T08:23:23.477Z,66.50
2023-10-03T08:25:50.976Z,66.04
2023-10-03T08:28:21.977Z,65.37
2023-10-03T08:30:51.527Z,66.26
2023-10-03T08:33:21.084Z,65.22
2023-10-03T08:35:49.510Z,65.53
2023-10-03T08:38:20.434Z,65.08
2023-10-03T08:40:51.722Z,64.33
2023-10-03T08:43:27.545Z,62.49
2023-10-03T08:45:58.063Z,62.79
2023-10-03T08:48:30.528Z,62.06
2023-10-03T08:51:02.272Z,62.25
2023-10-03T08:53:30.932Z,61.86
2023-10-03T08:56:04.699Z,60.56
2023-10-03T08:58:33.653Z,60.40
2023-10-03T09:01:02.829Z,60.35
2023-10-03T09:03:51.542Z,59.22
2023-10-03T09:06:24.915Z,59.47
2023-10-03T09:09:10.246Z,58.94
2023-10-03T09:11:39.322Z,57.72
2023-10-03T09:14:07.796Z,58.02
2023-10-03T09:16:42.748Z,58.04
2023-10-03T09:19:12.386Z,57.13
2023-10-03T09:21:40.138Z,57.45
2023-10-03T09:24:11.203Z,57.18
2023-10-03T09:26:48.539Z,58.77
2023-10-03T09:29:31.556Z,57.43
2023-10-03T09:32:14.946Z,57.47
2023-10-03T09:34:43.733Z,55.63
2023-10-03T09:37:12.342Z,56.33
2023-10-03T09:39:41.593Z,55.32
2023-10-03T09:42:17.010Z,53.84
2023-10-03T09:44:46.504Z,57.14
2023-10-03T09:47:14.896Z,55.54
2023-10-03T09:49:42.667Z,55.22
2023-10-03T09:52:19.096Z,52.81
2023-10-03T09:54:46.699Z,53.32
2023-10-03T09:57:18.083Z,52.59
2023-10-03T09:59:50.466Z,53.04
2023-10-03T10:02:37.242Z,52.12
2023-10-03T10:05:21.113Z,51.97
2023-10-03T10:08:07.616Z,52.11
2023-10-03T10:10:38.767Z,51.59
2023-10-03T10:13:22.280Z,52.05
2023-10-03T10:16:02.876Z,52.62
2023-10-03T10:18:45.916Z,52.26
2023-10-03T10:21:41.881Z,51.28
2023-10-03T10:24:21.490Z,51.41
2023-10-03T10:26:50.867Z,50.13
2023-10-03T10:29:22.573Z,50.89
2023-10-03T10:31:59.176Z,51.44
2023-10-03T10:34:34.018Z,51.36
2023-10-03T10:37:04.411Z,50.35
2023-10-03T10:39:50.799Z,50.53
2023-10-03T10:42:21.404Z,49.82
2023-10-03T10:45:16.473Z,50.69
2023-10-03T10:47:46.840Z,50.31
2023-10-03T10:50:21.780Z,50.36
2023-10-03T10:52:58.370Z,51.28
2023-10-03T10:55:27.188Z,50.40
2023-10-03T10:58:14.191Z,49.69
2023-10-03T11:00:42.327Z,50.79
2023-10-03T11:03:10.514Z,50.84
2023-10-03T11:05:49.272Z,50.03
2023-10-03T11:08:19.041Z,50.33
2023-10-03T11:10:55.064Z,48.54
2023-10-03T11:13:23.590Z,49.72
2023-10-03T11:15:52.857Z,49.59
2023-10-03T11:18:31.640Z,49.27
2023-10-03T11:21:04.346Z,48.04
2023-10-03T11:23:33.132Z,48.55
2023-10-03T11:26:02.081Z,48.33
2023-10-03T11:28:30.315Z,48.70
2023-10-03T11:31:07.637Z,48.26
2023-10-03T11:33:48.478Z,49.52
2023-10-03T11:36:16.090Z,48.80
2023-10-03T11:38:48.715Z,48.38
2023-10-03T11:41:35.338Z,47.37
2023-10-03T11:44:03.369Z,46.89
2023-10-03T11:46:47.279Z,47.35
2023-10-03T11:49:16.942Z,47.23
2023-10-03T11:51:45.825Z,46.58
2023-10-03T11:54:21.979Z,46.97
2023-10-03T11:56:49.852Z,46.45
2023-10-03T11:59:18.203Z,46.40
2023-10-03T12:01:50.254Z,45.92
2023-10-03T12:04:19.352Z,46.40
2023-10-03T12:06:47.210Z,46.51
2023-10-03T12:09:19.244Z,46.47
2023-10-03T12:11:51.846Z,46.76
2023-10-03T12:14:23.418Z,46.73
2023-10-03T12:16:53.864Z,46.45
2023-10-03T12:19:21.537Z,45.59
2023-10-03T12:21:49.013Z,45.59
2023-10-03T12:24:16.846Z,45.76
2023-10-03T12:26:44.790Z,45.93
2023-10-03T12:29:12.303Z,46.13
2023-10-03T12:31:40.237Z,45.69
2023-10-03T12:34:07.869Z,45.81
2023-10-03T12:36:35.399Z,45.51
2023-10-03T12:39:07.014Z,45.43
2023-10-03T12:41:34.727Z,45.93
2023-10-03T12:44:02.226Z,46.02
2023-10-03T12:46:30.257Z,46.02
2023-10-03T12:48:57.775Z,45.12
2023-10-03T12:51:25.308Z,45.65
2023-10-03T12:53:53.576Z,45.01
2023-10-03T12:56:21.212Z,45.71
2023-10-03T12:58:48.991Z,45.76
2023-10-03T13:01:16.820Z,46.36
2023-10-03T13:03:48.183Z,46.13
2023-10-03T13:06:16.836Z,46.20
2023-10-03T13:08:44.884Z,47.16
2023-10-03T13:11:14.771Z,46.65
2023-10-03T13:13:43.029Z,46.71
2023-10-03T13:16:10.891Z,47.26
2023-10-03T13:18:40.364Z,47.17
2023-10-03T13:21:08.491Z,46.75
2023-10-03T13:23:36.721Z,46.67
2023-10-03T13:26:04.299Z,46.73
2023-10-03T13:28:32.172Z,46.79
2023-10-03T13:31:00.182Z,47.27
2023-10-03T13:33:27.863Z,46.97
2023-10-03T13:35:55.873Z,46.77
2023-10-03T13:38:23.767Z,47.27
2023-10-03T13:40:52.054Z,46.46
2023-10-03T13:43:20.672Z,47.21
2023-10-03T13:45:49.736Z,47.61
2023-10-03T13:48:18.097Z,47.34
2023-10-03T13:50:48.688Z,47.10
2023-10-03T13:53:21.865Z,47.31
2023-10-03T13:55:49.621Z,46.86
2023-10-03T13:58:17.384Z,46.89
2023-10-03T14:00:44.834Z,47.73
2023-10-03T14:03:19.585Z,47.28
2023-10-03T14:05:47.525Z,47.74
2023-10-03T14:08:15.419Z,48.75
2023-10-03T14:10:46.524Z,47.90
2023-10-03T14:13:14.211Z,46.91
2023-10-03T14:15:42.827Z,47.72
2023-10-03T14:18:12.153Z,47.92
2023-10-03T14:20:40.676Z,47.57
2023-10-03T14:23:12.703Z,47.36
2023-10-03T14:25:41.078Z,47.42
2023-10-03T14:28:10.857Z,47.20
2023-10-03T14:30:40.515Z,48.07
2023-10-03T14:33:10.999Z,48.18
2023-10-03T14:35:40.532Z,48.14
2023-10-03T14:38:08.903Z,48.00
2023-10-03T14:40:37.361Z,47.98
2023-10-03T14:43:05.633Z,47.82
2023-10-03T14:45:33.884Z,48.53
2023-10-03T14:48:01.444Z,48.14
2023-10-03T14:50:29.405Z,48.15
2023-10-03T14:52:56.985Z,48.67
2023-10-03T14:55:24.580Z,48.64
2023-10-03T14:57:53.403Z,48.85
2023-10-03T15:00:23.715Z,48.90
2023-10-03T15:02:52.996Z,49.27
2023-10-03T15:05:20.985Z,49.37
2023-10-03T15:07:49.127Z,49.37
2023-10-03T15:10:17.015Z,49.52
2023-10-03T15:12:44.839Z,49.93
2023-10-03T15:15:13.208Z,50.65
2023-10-03T15:17:40.802Z,50.41
2023-10-03T15:20:12.442Z,50.77
2023-10-03T15:22:40.416Z,50.54
2023-10-03T15:25:08.725Z,51.31
2023-10-03T15:27:36.539Z,51.67
2023-10-03T15:30:07.584Z,52.00
2023-10-03T15:32:35.842Z,52.23
2023-10-03T15:35:07.583Z,52.74
2023-10-03T15:37:36.283Z,52.74
2023-10-03T15:40:04.198Z,53.00
2023-10-03T15:42:31.820Z,53.56
2023-10-03T15:47:37.145Z,53.66
2023-10-03T15:50:05.654Z,53.73
2023-10-03T15:52:33.220Z,54.15
2023-10-03T15:55:01.151Z,54.41
2023-10-03T15:57:29.074Z,54.69
2023-10-03T15:59:56.791Z,55.46
2023-10-03T16:02:24.446Z,55.59
2023-10-03T16:04:53.139Z,55.88
2023-10-03T16:07:20.698Z,56.11
2023-10-03T16:09:50.751Z,56.65
2023-10-03T16:12:20.604Z,57.14
2023-10-03T16:14:48.572Z,57.41
2023-10-03T16:17:17.682Z,57.78
2023-10-03T16:19:47.476Z,58.20
2023-10-03T16:22:15.048Z,58.65
2023-10-03T16:24:42.488Z,58.88
2023-10-03T16:27:10.761Z,59.12
2023-10-03T16:29:38.258Z,59.33
2023-10-03T16:32:05.786Z,59.65
2023-10-03T16:34:33.534Z,60.02
2023-10-03T16:37:02.137Z,60.34
2023-10-03T16:39:29.846Z,60.68
2023-10-03T16:42:01.212Z,60.86
2023-10-03T16:44:28.770Z,61.00
2023-10-03T16:46:56.442Z,61.32
2023-10-03T16:49:24.280Z,61.27
2023-10-03T16:51:52.222Z,61.87
2023-10-03T16:54:20.614Z,62.16
2023-10-03T16:56:49.965Z,62.54
2023-10-03T16:59:18.415Z,62.64
2023-10-03T17:01:48.760Z,63.03
2023-10-03T17:04:17.897Z,62.83
2023-10-03T17:06:48.793Z,62.71
2023-10-03T17:09:18.439Z,62.95
2023-10-03T17:11:48.822Z,63.16
2023-10-03T17:14:16.839Z,63.32
2023-10-03T17:16:44.378Z,63.22
2023-10-03T17:19:12.270Z,63.96
2023-10-03T17:21:41.339Z,64.45
2023-10-03T17:24:08.970Z,64.61
2023-10-03T17:26:37.047Z,64.77
2023-10-03T17:29:11.934Z,65.21
2023-10-03T17:31:42.182Z,66.12
2023-10-03T17:34:14.012Z,66.03
2023-10-03T17:36:42.473Z,65.64
2023-10-03T17:39:12.198Z,65.95
2023-10-03T17:41:40.225Z,66.05
2023-10-03T17:44:08.433Z,65.92
2023-10-03T17:46:36.614Z,65.84
2023-10-03T17:49:06.086Z,66.19
2023-10-03T17:51:33.789Z,66.22
2023-10-03T17:54:02.780Z,66.15
2023-10-03T17:56:30.814Z,66.69
2023-10-03T17:59:01.573Z,66.67
2023-10-03T18:01:30.283Z,67.07
2023-10-03T18:03:58.397Z,67.37
2023-10-03T18:06:26.199Z,67.57
2023-10-03T18:08:54.291Z,67.73
2023-10-03T18:11:22.360Z,67.81
2023-10-03T18:13:50.536Z,67.89
2023-10-03T18:16:19.114Z,68.24
2023-10-03T18:18:47.424Z,68.21
2023-10-03T18:21:15.497Z,68.25
2023-10-03T18:23:45.381Z,68.11
2023-10-03T18:26:13.749Z,68.77
2023-10-03T18:28:41.262Z,68.54
2023-10-03T18:31:20.145Z,68.59
2023-10-03T18:33:48.192Z,69.03
2023-10-03T18:36:19.672Z,69.51
2023-10-03T18:38:48.319Z,69.47
2023-10-03T18:41:16.524Z,69.46
2023-10-03T18:43:44.453Z,69.24
2023-10-03T18:46:14.704Z,69.17
2023-10-03T18:48:42.776Z,69.40
2023-10-03T18:51:10.359Z,69.84
2023-10-03T18:53:40.022Z,70.15
2023-10-03T18:56:11.776Z,70.32
2023-10-03T18:58:41.008Z,70.69
2023-10-03T19:01:16.560Z,71.22
2023-10-03T19:03:45.695Z,71.66
2023-10-03T19:06:16.054Z,71.68
2023-10-03T19:08:44.263Z,72.09
2023-10-03T19:11:18.085Z,72.15
2023-10-03T19:13:46.706Z,72.00
2023-10-03T19:16:18.198Z,72.23
2023-10-03T19:18:46.842Z,72.32
2023-10-03T19:21:15.013Z,72.27
2023-10-03T19:23:44.734Z,72.68
2023-10-03T19:26:12.753Z,73.29
2023-10-03T19:28:41.960Z,73.06
2023-10-03T19:31:10.469Z,73.54
2023-10-03T19:33:39.547Z,74.02
2023-10-03T19:36:13.848Z,73.87
2023-10-03T19:38:43.764Z,74.14
2023-10-03T19:41:13.617Z,74.58
2023-10-03T19:43:43.052Z,74.54
2023-10-03T19:46:18.278Z,74.76
2023-10-03T19:48:46.528Z,75.01
2023-10-03T19:51:17.534Z,75.27
2023-10-03T19:53:46.319Z,75.37
2023-10-03T19:56:17.254Z,75.79
2023-10-03T19:58:46.335Z,76.37
2023-10-03T20:01:26.447Z,76.50
2023-10-03T20:03:54.482Z,77.19
2023-10-03T20:06:24.434Z,77.67
2023-10-03T20:08:53.965Z,77.92
2023-10-03T20:11:21.757Z,78.54
2023-10-03T20:13:49.591Z,78.26
2023-10-03T20:16:17.801Z,79.03
2023-10-03T20:18:49.471Z,79.31
2023-10-03T20:21:18.332Z,79.34
2023-10-03T20:23:46.847Z,79.62
2023-10-03T20:26:16.145Z,79.84
2023-10-03T20:28:44.005Z,80.54
2023-10-03T20:31:11.926Z,81.40
2023-10-03T20:33:40.416Z,81.08
2023-10-03T20:36:14.959Z,81.50
2023-10-03T20:38:43.651Z,81.46
2023-10-03T20:41:14.091Z,81.77
2023-10-03T20:43:42.704Z,81.89
2023-10-03T20:46:14.596Z,82.29
2023-10-03T20:48:43.161Z,82.50
2023-10-03T20:51:22.705Z,82.68
2023-10-03T20:53:50.581Z,82.78
2023-10-03T20:56:18.302Z,82.64
2023-10-03T20:58:47.134Z,83.50
2023-10-03T21:01:14.954Z,83.03
2023-10-03T21:03:48.305Z,84.20
2023-10-03T21:06:15.850Z,83.43
2023-10-03T21:08:44.331Z,83.72
2023-10-03T21:11:16.014Z,84.02
2023-10-03T21:13:44.481Z,85.39
2023-10-03T21:16:13.474Z,85.09
2023-10-03T21:18:41.261Z,84.82
2023-10-03T21:21:12.740Z,84.57
2023-10-03T21:23:43.803Z,84.91
2023-10-03T21:26:12.075Z,84.92
2023-10-03T21:28:43.026Z,84.86
2023-10-03T21:31:10.872Z,85.12
2023-10-03T21:33:38.489Z,86.25
2023-10-03T21:36:07.417Z,85.00
2023-10-03T21:38:35.495Z,84.96
2023-10-03T21:41:03.037Z,85.04
2023-10-03T21:43:30.789Z,84.98
2023-10-03T21:46:01.108Z,85.29
2023-10-03T21:48:29.158Z,86.96
2023-10-03T21:51:09.745Z,87.52
2023-10-03T21:53:37.715Z,90.53
2023-10-03T21:56:09.164Z,91.42
2023-10-03T21:58:37.998Z,90.61
2023-10-03T22:01:07.128Z,91.78
2023-10-03T22:03:38.051Z,91.35
2023-10-03T22:06:05.777Z,91.52
2023-10-03T22:08:33.629Z,91.82
2023-10-03T22:11:01.501Z,93.10
2023-10-03T22:13:29.485Z,92.23
2023-10-03T22:15:57.069Z,92.73
2023-10-03T22:18:25.125Z,92.57
2023-10-03T22:20:53.263Z,93.82
2023-10-03T22:23:21.503Z,94.39
2023-10-03T22:25:49.456Z,93.34
2023-10-03T22:28:17.712Z,94.63
2023-10-03T22:30:47.322Z,93.08
2023-10-03T22:33:15.275Z,93.57
2023-10-03T22:35:43.315Z,93.26
2023-10-03T22:38:10.884Z,93.53
2023-10-03T22:40:38.902Z,94.48
2023-10-03T22:43:08.464Z,94.33
2023-10-03T22:45:36.579Z,93.99
2023-10-03T22:48:04.850Z,94.26
2023-10-03T22:50:33.251Z,94.50
2023-10-03T22:53:00.995Z,94.53
2023-10-03T22:55:31.560Z,94.96
2023-10-03T22:57:59.029Z,94.92
2023-10-03T23:00:26.683Z,94.43
2023-10-03T23:02:54.743Z,94.22
2023-10-03T23:05:22.549Z,94.69
2023-10-03T23:07:50.795Z,94.40
2023-10-03T23:10:18.799Z,94.32
2023-10-03T23:12:46.419Z,94.35
2023-10-03T23:15:15.608Z,93.80
2023-10-03T23:17:43.900Z,93.83
2023-10-03T23:20:16.082Z,94.40
2023-10-03T23:22:44.472Z,94.28
2023-10-03T23:25:15.002Z,94.64
2023-10-03T23:27:42.588Z,94.57
2023-10-03T23:30:12.744Z,95.19
2023-10-03T23:32:40.641Z,95.49
2023-10-03T23:35:08.855Z,95.00
2023-10-03T23:37:36.851Z,95.40
2023-10-03T23:40:14.960Z,95.19
2023-10-03T23:42:45.040Z,95.47
2023-10-03T23:45:14.517Z,95.39
2023-10-03T23:47:43.349Z,95.69
2023-10-03T23:50:14.403Z,95.97
2023-10-03T23:52:42.266Z,95.88
2023-10-03T23:55:14.080Z,96.00
2023-10-03T23:57:45.131Z,95.83
